Time;durP1;ratioP1;P1;durP2;ratioP2;P2;SDS_P1;SDS_P2;PMS_P1;PMS_P2;Temp;Humidity;BMP_temperature;BMP_pressure;BME280_temperature;BME280_humidity;BME280_pressure;Samples;Min_cycle;Max_cycle;Signal;HPM_P1;HPM_P2
2023/05/30 00:02:22;;;;;;;3.20;2.43;;;14.60;59.50;;;14.38;57.32;98273.19;5019203;28;20466;-67
2023/05/30 00:04:51;;;;;;;9.60;2.90;;;14.50;59.80;;;14.31;57.45;98281.44;5019100;28;20490;-65
2023/05/30 00:07:18;;;;;;;3.20;2.60;;;14.50;60.20;;;14.22;57.64;98280.13;5017039;28;20459;-65
2023/05/30 00:09:46;;;;;;;4.93;3.50;;;14.40;60.50;;;14.21;57.59;98280.38;5017929;28;20961;-69
2023/05/30 00:12:13;;;;;;;3.10;2.47;;;14.40;60.80;;;14.25;57.77;98289.72;4997885;28;20472;-69
2023/05/30 00:14:41;;;;;;;6.17;2.90;;;14.40;61.10;;;14.24;57.73;98279.91;4999422;28;20510;-67
2023/05/30 00:17:08;;;;;;;4.03;2.73;;;14.40;61.50;;;14.21;57.85;98291.25;5019139;28;20938;-68
2023/05/30 00:19:36;;;;;;;3.70;2.90;;;14.30;61.60;;;14.16;58.07;98284.59;5002345;28;20556;-67
2023/05/30 00:22:05;;;;;;;4.60;2.90;;;14.30;61.90;;;14.13;57.90;98278.81;4995336;28;20446;-71
2023/05/30 00:24:32;;;;;;;4.60;2.87;;;14.20;62.00;;;14.08;58.41;98276.78;5008487;28;20551;-69
2023/05/30 00:27:00;;;;;;;3.47;2.43;;;14.20;62.40;;;14.05;58.18;98276.41;5015939;28;20469;-67
2023/05/30 00:29:27;;;;;;;3.40;2.80;;;14.10;62.70;;;14.12;58.15;98283.41;4998727;28;20523;-66
2023/05/30 00:31:54;;;;;;;3.80;2.20;;;14.20;62.60;;;14.15;57.97;98280.22;5016701;28;20480;-67
2023/05/30 00:34:22;;;;;;;2.80;2.33;;;14.20;62.60;;;14.09;57.77;98273.00;5013360;28;20478;-69
2023/05/30 00:36:50;;;;;;;5.17;2.50;;;14.20;62.80;;;14.24;57.79;98282.63;5023129;28;20458;-67
2023/05/30 00:39:18;;;;;;;3.70;3.03;;;14.30;62.60;;;14.15;57.65;98284.84;5000797;28;20452;-65
2023/05/30 00:41:45;;;;;;;4.20;2.63;;;14.20;62.80;;;14.10;57.94;98281.97;5004232;28;20502;-67
2023/05/30 00:44:14;;;;;;;4.23;2.90;;;14.20;63.00;;;13.86;58.45;98274.56;5010202;28;20541;-67
2023/05/30 00:46:42;;;;;;;2.77;2.57;;;14.10;62.90;;;13.95;58.13;98275.13;5018588;28;20456;-65
2023/05/30 00:49:09;;;;;;;4.30;2.53;;;14.00;63.50;;;13.44;58.61;98203.97;5011284;28;20568;-65
2023/05/30 00:51:37;;;;;;;4.10;2.50;;;14.00;63.60;;;13.70;58.77;98261.66;5018741;28;20973;-67
2023/05/30 00:54:06;;;;;;;3.50;2.27;;;13.90;63.80;;;13.66;59.13;98280.31;5013520;28;20540;-66
2023/05/30 00:56:33;;;;;;;6.17;2.90;;;13.80;64.30;;;13.60;59.54;98282.06;4994815;28;20541;-66
2023/05/30 00:59:02;;;;;;;3.83;2.50;;;13.80;64.80;;;13.68;59.32;98282.78;5013858;28;20465;-66
2023/05/30 01:01:32;;;;;;;2.60;2.30;;;13.80;65.50;;;13.59;59.65;98279.56;5006718;28;20465;-66
2023/05/30 01:03:59;;;;;;;3.27;2.57;;;13.70;65.20;;;13.51;59.94;98267.13;4993034;28;20474;-67
2023/05/30 01:06:29;;;;;;;4.27;2.63;;;13.70;65.80;;;13.64;59.60;98278.88;5018193;28;20467;-68
2023/05/30 01:08:58;;;;;;;2.63;2.30;;;13.70;65.80;;;13.46;59.59;98265.09;5004650;28;20837;-71
2023/05/30 01:11:35;;;;;;;2.57;2.37;;;13.70;66.20;;;13.55;60.20;98283.78;5018262;28;20476;-70
2023/05/30 01:14:14;;;;;;;3.53;2.77;;;13.60;66.80;;;13.57;59.71;98277.09;4995903;28;20483;-67
2023/05/30 01:16:45;;;;;;;2.80;2.27;;;13.60;66.50;;;13.39;60.42;98272.47;5020167;28;20466;-68
2023/05/30 01:19:46;;;;;;;3.73;2.70;;;13.50;66.80;;;13.56;59.49;98272.69;5012698;28;21055;-66
2023/05/30 01:22:24;;;;;;;7.80;2.50;;;13.60;66.70;;;13.50;60.02;98270.91;4994122;28;20998;-65
2023/05/30 01:25:13;;;;;;;2.50;2.30;;;13.60;66.60;;;13.40;60.33;98273.28;5020050;28;21005;-65
2023/05/30 01:27:58;;;;;;;5.37;2.50;;;13.50;67.00;;;13.26;60.77;98270.72;5013202;28;20976;-69
2023/05/30 01:30:26;;;;;;;3.60;3.20;;;13.40;67.40;;;13.26;60.87;98276.16;5001923;28;20921;-65
2023/05/30 01:32:54;;;;;;;3.57;2.93;;;13.40;68.00;;;13.29;60.47;98264.88;5018721;28;20559;-66
2023/05/30 01:35:23;;;;;;;3.37;2.40;;;13.40;68.30;;;13.04;61.47;98263.06;5011513;28;20635;-69
2023/05/30 01:37:50;;;;;;;3.00;2.20;;;13.20;68.50;;;12.98;61.71;98269.38;5003837;28;20815;-66
2023/05/30 01:40:23;;;;;;;5.97;2.77;;;13.10;68.90;;;13.00;61.42;98272.69;4996939;28;20521;-67
2023/05/30 01:42:58;;;;;;;4.50;2.80;;;13.20;68.90;;;12.98;61.43;98269.38;4990013;28;20469;-66
2023/05/30 01:45:40;;;;;;;4.83;2.93;;;13.20;69.10;;;12.96;61.38;98271.47;5019776;28;20540;-67
2023/05/30 01:48:14;;;;;;;2.50;2.30;;;13.20;69.10;;;12.94;61.34;98270.88;5015014;28;20474;-72
2023/05/30 01:50:47;;;;;;;2.83;2.23;;;13.10;69.50;;;13.04;61.11;98271.19;5015296;28;20472;-69
2023/05/30 01:53:23;;;;;;;4.10;2.63;;;13.10;69.50;;;12.97;61.55;98272.31;4992791;28;20567;-68
2023/05/30 01:55:55;;;;;;;2.97;2.37;;;13.10;69.60;;;12.94;61.58;98262.72;4996334;28;20860;-67
2023/05/30 01:58:25;;;;;;;4.13;2.97;;;13.00;69.90;;;12.88;61.57;98263.63;5003361;28;20509;-67
2023/05/30 02:00:55;;;;;;;4.90;2.50;;;13.00;69.80;;;12.89;61.65;98265.31;5023198;28;20459;-70
2023/05/30 02:03:23;;;;;;;3.07;2.30;;;13.00;70.20;;;12.97;61.38;98262.31;5003231;28;20765;-69
2023/05/30 02:05:51;;;;;;;3.70;2.20;;;13.10;70.00;;;12.84;61.98;98270.56;5002064;28;20509;-68
2023/05/30 02:08:18;;;;;;;5.47;2.83;;;13.00;70.30;;;12.74;62.52;98277.31;5008752;28;20792;-70
2023/05/30 02:10:45;;;;;;;8.17;3.03;;;12.90;70.60;;;12.70;62.29;98262.56;5017002;28;20468;-66
2023/05/30 02:13:12;;;;;;;3.50;3.17;;;12.90;70.60;;;12.57;62.67;98265.41;5020008;28;20514;-67
2023/05/30 02:15:44;;;;;;;4.17;2.40;;;12.70;71.10;;;12.75;62.06;98270.84;5019406;28;20491;-66
2023/05/30 02:18:12;;;;;;;3.73;2.30;;;12.80;71.30;;;12.83;61.49;98256.19;5015905;28;20473;-68
2023/05/30 02:20:40;;;;;;;4.60;3.20;;;12.90;70.50;;;12.70;62.14;98267.16;4998026;28;20547;-72
2023/05/30 02:23:07;;;;;;;3.90;2.90;;;12.90;70.40;;;12.64;62.09;98252.59;5014810;28;20471;-67
2023/05/30 02:25:34;;;;;;;2.70;2.40;;;12.80;70.70;;;12.69;62.07;98260.91;5005798;28;20499;-71
2023/05/30 02:28:02;;;;;;;3.87;2.73;;;12.70;70.80;;;12.73;61.58;98255.84;5006919;28;21054;-64
2023/05/30 02:30:29;;;;;;;4.20;2.70;;;12.80;70.40;;;12.54;62.41;98250.41;5020430;28;20476;-67
2023/05/30 02:32:57;;;;;;;3.77;2.47;;;12.80;70.50;;;12.64;62.01;98266.16;5016732;28;20461;-67
2023/05/30 02:35:24;;;;;;;3.67;2.53;;;12.80;70.60;;;12.69;61.61;98250.06;4996699;28;20533;-69
2023/05/30 02:37:51;;;;;;;4.87;2.93;;;12.80;70.20;;;12.60;61.77;98256.81;5020008;28;20533;-71
2023/05/30 02:40:19;;;;;;;3.13;2.37;;;12.80;70.20;;;12.51;62.18;98252.72;5018303;28;20460;-67
2023/05/30 02:42:46;;;;;;;4.30;2.50;;;12.70;70.50;;;12.57;62.15;98257.28;5015942;28;20445;-68
2023/05/30 02:45:13;;;;;;;2.60;2.13;;;12.70;70.70;;;12.62;61.79;98262.84;5014802;28;20457;-67
2023/05/30 02:47:40;;;;;;;4.13;2.70;;;12.80;70.60;;;12.46;61.94;98259.66;5010134;28;20461;-65
2023/05/30 02:50:10;;;;;;;6.20;2.63;;;12.70;70.20;;;12.47;62.41;98255.06;5013436;28;20467;-65
2023/05/30 02:52:37;;;;;;;6.10;2.43;;;12.70;70.60;;;12.43;62.34;98262.81;5011390;28;20461;-69
2023/05/30 02:55:06;;;;;;;3.80;2.40;;;12.70;70.60;;;12.49;62.53;98265.66;5013205;28;20469;-66
2023/05/30 02:57:33;;;;;;;4.53;3.13;;;12.70;70.90;;;12.50;62.28;98272.75;5017811;28;20459;-65
2023/05/30 03:00:01;;;;;;;4.07;2.60;;;12.70;70.70;;;12.45;62.38;98266.13;5026136;28;20460;-67
2023/05/30 03:02:28;;;;;;;5.57;2.40;;;12.60;70.80;;;12.32;62.70;98263.50;5002538;28;20460;-67
2023/05/30 03:04:55;;;;;;;8.50;3.27;;;12.60;70.80;;;12.27;63.09;98268.78;5018933;28;20467;-65
2023/05/30 03:07:26;;;;;;;4.97;2.57;;;12.50;71.20;;;12.31;62.68;98264.56;5000170;28;20795;-67
2023/05/30 03:09:54;;;;;;;4.40;2.70;;;12.50;71.20;;;12.36;62.35;98272.03;5020148;28;20523;-65
2023/05/30 03:12:22;;;;;;;4.60;3.20;;;12.50;71.20;;;12.11;63.50;98268.25;5013538;28;20461;-67
2023/05/30 03:14:49;;;;;;;5.23;2.53;;;12.40;71.40;;;12.28;62.81;98267.72;5008631;28;20474;-65
2023/05/30 03:17:17;;;;;;;3.60;3.10;;;12.50;71.60;;;12.05;63.09;98263.72;4997470;28;20461;-67
2023/05/30 03:19:45;;;;;;;3.40;2.50;;;12.40;71.50;;;12.08;63.55;98260.59;5007367;28;21033;-66
2023/05/30 03:22:13;;;;;;;4.37;2.53;;;12.40;71.70;;;12.29;62.62;98277.50;5012748;28;20518;-67
2023/05/30 03:24:42;;;;;;;4.10;2.77;;;12.40;71.80;;;12.28;62.44;98265.84;4995795;28;20760;-66
2023/05/30 03:27:09;;;;;;;3.80;3.00;;;12.50;71.50;;;12.22;62.97;98282.16;5028049;28;20459;-67
2023/05/30 03:29:36;;;;;;;4.43;2.20;;;12.40;71.50;;;12.25;63.16;98281.72;5000350;28;20445;-66
2023/05/30 03:32:04;;;;;;;5.80;2.83;;;12.40;71.70;;;12.30;62.51;98280.00;5010423;28;20511;-66
2023/05/30 03:34:32;;;;;;;5.40;2.90;;;12.50;71.60;;;12.28;63.06;98278.56;5000222;28;20455;-65
2023/05/30 03:36:59;;;;;;;3.60;2.60;;;12.40;71.60;;;12.29;62.83;98282.94;5022935;28;20499;-65
2023/05/30 03:39:26;;;;;;;4.80;2.33;;;12.40;71.70;;;12.16;62.77;98275.75;5021516;28;21044;-65
2023/05/30 03:41:55;;;;;;;3.80;2.37;;;12.40;71.60;;;12.18;62.76;98282.56;5024412;28;20530;-68
2023/05/30 03:44:22;;;;;;;3.57;2.33;;;12.40;71.70;;;12.34;62.18;98283.09;5018019;28;20474;-68
2023/05/30 03:46:49;;;;;;;3.80;2.70;;;12.50;71.10;;;12.43;62.03;98273.63;5018297;28;20539;-67
2023/05/30 03:49:17;;;;;;;2.70;2.10;;;12.60;71.30;;;11.97;61.72;98196.25;5019261;28;20469;-67
2023/05/30 03:51:44;;;;;;;5.20;2.80;;;12.60;71.00;;;12.62;61.26;98281.81;5017865;28;20558;-64
2023/05/30 03:54:11;;;;;;;5.07;3.00;;;12.70;70.80;;;12.45;62.28;98285.09;5004641;28;20478;-66
2023/05/30 03:56:38;;;;;;;3.47;2.70;;;12.70;70.70;;;12.60;62.05;98279.34;5020217;28;20572;-66
2023/05/30 03:59:07;;;;;;;5.33;2.43;;;12.70;71.20;;;12.46;62.17;98270.47;5011605;28;20464;-70
2023/05/30 04:01:35;;;;;;;4.17;2.63;;;12.70;70.90;;;12.47;62.23;98272.13;5018922;28;20843;-69
2023/05/30 04:04:02;;;;;;;4.23;2.63;;;12.70;71.20;;;12.71;61.87;98294.03;5001981;28;20829;-65
2023/05/30 04:06:29;;;;;;;3.90;2.90;;;12.80;71.20;;;12.62;62.41;98292.66;5017335;28;20549;-68
2023/05/30 04:08:59;;;;;;;4.43;3.30;;;12.80;71.00;;;12.52;62.48;98287.75;5018348;28;20451;-68
2023/05/30 04:11:26;;;;;;;4.73;3.70;;;12.80;71.10;;;12.38;62.57;98265.34;5016104;28;20459;-67
2023/05/30 04:13:53;;;;;;;6.03;3.07;;;12.80;71.10;;;12.52;62.50;98298.56;5019067;28;20457;-67
2023/05/30 04:16:22;;;;;;;8.63;3.37;;;12.80;71.30;;;12.59;62.47;98290.41;5019958;28;20478;-70
2023/05/30 04:18:49;;;;;;;3.07;2.47;;;12.80;71.20;;;12.79;61.93;98286.66;5024984;28;20479;-71
2023/05/30 04:21:16;;;;;;;5.23;2.77;;;12.90;71.30;;;12.81;61.54;98300.81;5010630;28;20461;-65
2023/05/30 04:23:44;;;;;;;3.33;2.57;;;13.00;70.90;;;12.94;61.07;98300.69;5008622;28;20468;-65
2023/05/30 04:26:12;;;;;;;6.00;2.83;;;13.10;70.80;;;13.31;60.29;98300.75;5016331;28;20465;-66
2023/05/30 04:28:41;;;;;;;5.70;3.20;;;13.30;70.40;;;13.32;60.18;98302.41;5011495;28;22647;-69
2023/05/30 04:31:09;;;;;;;4.60;2.60;;;13.40;69.80;;;13.26;60.18;98297.84;5005958;28;20449;-66
2023/05/30 04:33:38;;;;;;;3.83;2.50;;;13.50;69.50;;;13.31;59.58;98303.44;5016851;28;20479;-68
2023/05/30 04:36:09;;;;;;;3.23;2.37;;;13.50;69.00;;;13.63;58.89;98310.59;5016619;28;20491;-69
2023/05/30 04:38:37;;;;;;;4.83;2.57;;;13.70;69.00;;;13.76;58.78;98304.19;5015591;28;20471;-68
2023/05/30 04:41:05;;;;;;;3.80;2.87;;;13.80;68.30;;;13.82;58.83;98313.31;5017356;28;20890;-67
2023/05/30 04:43:34;;;;;;;2.70;2.30;;;13.90;68.40;;;13.68;58.63;98308.06;5017409;28;20516;-67
2023/05/30 04:46:03;;;;;;;8.23;2.70;;;13.90;68.00;;;13.86;58.46;98311.78;5020909;28;20462;-68
2023/05/30 04:48:31;;;;;;;2.60;2.40;;;14.00;67.80;;;13.84;58.11;98314.72;5009231;28;20509;-68
2023/05/30 04:51:00;;;;;;;2.60;2.07;;;14.00;67.30;;;13.92;58.32;98318.19;5020276;28;20935;-69
2023/05/30 04:53:27;;;;;;;3.03;2.30;;;14.20;67.30;;;14.26;57.58;98323.97;5019881;28;20985;-66
2023/05/30 04:55:55;;;;;;;3.30;2.70;;;14.40;67.10;;;14.32;56.88;98325.75;5002358;28;20470;-66
2023/05/30 04:58:22;;;;;;;5.03;2.70;;;14.50;66.50;;;14.00;57.27;98312.41;5019895;28;21119;-68
2023/05/30 05:00:51;;;;;;;4.50;2.47;;;14.40;66.20;;;14.28;56.89;98324.56;5014778;28;20469;-67
2023/05/30 05:03:18;;;;;;;8.30;2.90;;;14.50;66.10;;;14.63;56.30;98340.13;5012465;28;20477;-67
2023/05/30 05:05:45;;;;;;;5.50;2.27;;;14.80;66.00;;;14.56;55.90;98331.25;5015199;28;20542;-68
2023/05/30 05:08:13;;;;;;;3.00;1.97;;;14.80;64.80;;;14.93;54.60;98282.09;4994825;28;20462;-69
2023/05/30 05:10:41;;;;;;;3.73;2.33;;;15.30;64.50;;;15.34;53.24;98265.00;5019684;28;20450;-69
2023/05/30 05:13:08;;;;;;;4.00;1.93;;;15.80;63.30;;;15.85;52.36;98293.28;5013917;28;20457;-69
2023/05/30 05:15:35;;;;;;;4.20;2.40;;;16.30;61.90;;;16.32;51.74;98329.59;5001311;28;20968;-69
2023/05/30 05:18:02;;;;;;;5.93;2.70;;;16.60;60.80;;;16.48;51.03;98343.50;5004219;28;20457;-69
2023/05/30 05:20:30;;;;;;;4.03;2.40;;;16.80;60.00;;;16.42;51.43;98335.19;5007219;28;20468;-69
2023/05/30 05:22:57;;;;;;;4.63;2.47;;;16.80;59.50;;;16.76;50.08;98339.84;5020089;28;20460;-69
2023/05/30 05:25:25;;;;;;;3.80;2.23;;;16.90;58.90;;;16.95;49.97;98336.88;4997217;28;20463;-69
2023/05/30 05:27:53;;;;;;;2.67;2.40;;;17.10;58.80;;;16.92;49.81;98337.38;5010048;28;20456;-68
2023/05/30 05:30:20;;;;;;;5.27;2.70;;;17.20;57.90;;;16.98;49.73;98342.66;5012889;28;20462;-68
2023/05/30 05:32:48;;;;;;;3.80;2.20;;;17.30;57.70;;;16.93;49.92;98328.94;5021162;28;20466;-69
2023/05/30 05:35:15;;;;;;;4.13;3.07;;;17.30;57.70;;;17.06;50.26;98337.88;4997776;28;20471;-69
2023/05/30 05:37:42;;;;;;;3.47;2.50;;;17.40;57.70;;;16.93;49.43;98278.97;4994528;28;20485;-69
2023/05/30 05:40:10;;;;;;;2.90;2.30;;;17.50;57.10;;;17.41;49.80;98339.47;5016851;28;20466;-70
2023/05/30 05:42:39;;;;;;;5.07;2.93;;;17.60;57.80;;;17.40;48.81;98332.38;5008144;28;20551;-69
2023/05/30 05:45:08;;;;;;;7.50;3.10;;;17.60;57.00;;;17.59;49.02;98340.25;5009346;28;20465;-68
2023/05/30 05:47:35;;;;;;;10.30;2.83;;;17.80;56.80;;;17.99;47.72;98345.38;4998589;28;20467;-68
2023/05/30 05:50:03;;;;;;;4.57;2.40;;;18.10;56.20;;;18.34;46.73;98345.19;5017394;28;20470;-68
2023/05/30 05:52:31;;;;;;;4.80;2.50;;;18.60;55.50;;;18.27;47.05;98339.94;5003551;28;20455;-68
2023/05/30 05:54:58;;;;;;;3.87;2.30;;;18.70;55.10;;;18.86;45.63;98353.88;5012925;28;20462;-66
2023/05/30 05:57:25;;;;;;;6.37;3.03;;;18.90;54.50;;;18.68;45.93;98345.78;4999745;28;20489;-68
2023/05/30 05:59:54;;;;;;;5.77;2.40;;;19.10;54.20;;;18.96;45.59;98337.53;4999201;28;20987;-68
2023/05/30 06:02:21;;;;;;;5.03;2.20;;;19.30;54.10;;;18.89;46.05;98345.97;4994893;28;20629;-68
2023/05/30 06:04:49;;;;;;;1.93;1.70;;;19.20;54.20;;;19.09;45.87;98349.97;5001364;28;20494;-68
2023/05/30 06:07:17;;;;;;;2.70;2.43;;;19.40;54.00;;;18.97;44.41;98274.28;4993343;28;20479;-68
2023/05/30 06:09:47;;;;;;;3.42;2.42;;;19.70;53.20;;;20.00;43.11;98341.69;5010724;28;20534;-69
2023/05/30 06:12:18;;;;;;;3.00;2.60;;;20.10;52.70;;;20.28;42.66;98344.22;4993523;28;20196;-70
2023/05/30 06:14:46;;;;;;;4.73;2.83;;;20.70;51.70;;;19.46;44.45;98346.34;4998397;28;20974;-69
2023/05/30 06:17:14;;;;;;;2.83;2.17;;;20.70;51.40;;;20.17;42.57;98351.59;4996010;28;20541;-69
2023/05/30 06:19:42;;;;;;;2.50;2.23;;;20.70;51.00;;;19.81;42.92;98353.13;5022142;28;20461;-69
2023/05/30 06:22:09;;;;;;;4.70;2.20;;;20.50;50.70;;;19.81;43.08;98355.84;5021287;28;20473;-69
2023/05/30 06:24:38;;;;;;;4.83;2.47;;;20.30;50.50;;;19.50;44.10;98355.72;5022974;28;20463;-70
2023/05/30 06:27:06;;;;;;;4.23;2.37;;;19.90;51.20;;;19.23;43.96;98356.66;5015059;28;20466;-69
2023/05/30 06:29:35;;;;;;;4.40;2.00;;;19.70;51.00;;;19.08;43.41;98288.09;4999606;28;20465;-70
2023/05/30 06:32:04;;;;;;;2.13;1.93;;;19.70;50.80;;;19.03;43.82;98302.56;5018144;28;20458;-69
2023/05/30 06:34:33;;;;;;;2.73;1.87;;;19.70;51.00;;;19.00;44.30;98362.50;5019362;28;20458;-69
2023/05/30 06:37:00;;;;;;;2.97;2.17;;;19.40;50.90;;;18.44;45.00;98312.50;4998041;28;20479;-69
2023/05/30 06:39:27;;;;;;;3.97;2.03;;;19.30;51.00;;;18.83;45.21;98363.44;5005600;28;20456;-68
2023/05/30 06:41:55;;;;;;;2.37;1.57;;;19.00;51.40;;;18.64;44.30;98333.72;5015573;28;20481;-69
2023/05/30 06:44:22;;;;;;;3.33;1.90;;;19.00;50.60;;;18.81;44.59;98357.41;4995968;28;20458;-69
2023/05/30 06:46:50;;;;;;;2.50;1.80;;;19.00;50.80;;;18.55;43.90;98349.81;5014478;28;20495;-70
2023/05/30 06:49:17;;;;;;;2.80;1.80;;;18.90;50.10;;;18.58;42.58;98347.63;5018890;28;20466;-69
2023/05/30 06:51:45;;;;;;;3.80;2.03;;;18.90;49.10;;;18.54;42.84;98350.03;5014065;28;20473;-69
2023/05/30 06:54:12;;;;;;;5.90;2.00;;;18.90;49.10;;;18.45;42.25;98357.09;5003673;28;20489;-69
2023/05/30 06:56:39;;;;;;;4.00;2.07;;;18.80;48.50;;;18.36;42.54;98357.53;5021184;28;20531;-69
2023/05/30 06:59:07;;;;;;;6.63;1.67;;;18.70;48.70;;;18.51;42.77;98362.34;5003216;28;20923;-69
2023/05/30 07:01:34;;;;;;;3.17;1.57;;;18.70;48.90;;;18.75;42.50;98366.66;5019903;28;20457;-69
2023/05/30 07:04:01;;;;;;;2.83;1.47;;;18.90;49.00;;;18.49;42.04;98361.75;5002017;28;20446;-69
2023/05/30 07:06:29;;;;;;;1.67;1.50;;;18.90;48.40;;;18.46;41.69;98364.22;5005187;28;20556;-68
2023/05/30 07:08:58;;;;;;;2.37;1.40;;;18.90;48.20;;;18.20;42.72;98366.69;5017542;28;20548;-69
2023/05/30 07:11:25;;;;;;;3.50;1.90;;;18.60;48.40;;;18.39;42.34;98364.41;5019572;28;20509;-69
2023/05/30 07:13:53;;;;;;;3.07;1.80;;;18.60;48.60;;;18.39;42.08;98367.97;5019935;28;20501;-70
2023/05/30 07:16:20;;;;;;;3.03;1.97;;;18.60;48.30;;;18.48;42.13;98364.78;5008969;28;20458;-69
2023/05/30 07:18:48;;;;;;;4.13;2.10;;;18.80;48.50;;;18.58;42.29;98373.09;5021348;28;20455;-70
2023/05/30 07:21:15;;;;;;;2.70;1.80;;;18.80;48.50;;;18.56;42.10;98364.28;5027805;28;20463;-69
2023/05/30 07:23:43;;;;;;;2.80;1.77;;;18.80;48.20;;;18.64;41.95;98366.56;5008847;28;20488;-69
2023/05/30 07:26:12;;;;;;;2.83;2.37;;;18.80;48.50;;;18.68;41.78;98362.22;5011418;28;20490;-73
2023/05/30 07:28:39;;;;;;;2.20;1.90;;;18.80;48.20;;;18.87;41.67;98364.56;5005777;28;20532;-68
2023/05/30 07:31:06;;;;;;;2.00;1.47;;;19.10;48.40;;;18.89;41.65;98359.66;5001057;28;20462;-68
2023/05/30 07:33:34;;;;;;;2.17;1.70;;;19.20;48.20;;;18.93;41.55;98351.72;5003518;28;20470;-70
2023/05/30 07:36:01;;;;;;;3.67;1.67;;;19.10;48.20;;;19.20;41.53;98350.88;5024464;28;20473;-70
2023/05/30 07:38:28;;;;;;;2.30;2.10;;;19.30;48.40;;;18.81;41.42;98295.28;4995982;28;20485;-71
2023/05/30 07:40:55;;;;;;;3.43;2.00;;;19.40;48.20;;;19.13;40.43;98347.53;4998641;28;20520;-69
2023/05/30 07:43:24;;;;;;;3.23;1.70;;;19.40;47.60;;;19.25;40.65;98348.16;5008885;28;20458;-70
2023/05/30 07:45:51;;;;;;;4.30;2.10;;;19.40;47.70;;;19.25;40.70;98353.63;5000624;28;20505;-70
2023/05/30 07:48:20;;;;;;;2.10;1.60;;;19.50;47.90;;;19.24;39.56;98368.41;5007047;28;20442;-69
2023/05/30 07:50:47;;;;;;;2.60;1.83;;;19.40;46.90;;;19.16;40.04;98345.09;5006119;28;20507;-69
2023/05/30 07:53:14;;;;;;;2.77;1.60;;;19.30;46.90;;;19.17;40.09;98362.34;5005485;28;20462;-70
2023/05/30 07:55:41;;;;;;;3.10;2.40;;;19.40;46.90;;;19.16;39.81;98353.28;5014392;28;20474;-70
2023/05/30 07:58:09;;;;;;;3.00;1.90;;;19.40;46.70;;;19.17;40.24;98352.19;5025843;28;20477;-70
2023/05/30 08:00:37;;;;;;;4.05;1.80;;;19.30;46.90;;;19.35;39.40;98344.66;5018608;28;20465;-71
2023/05/30 08:03:04;;;;;;;3.10;1.60;;;19.50;46.70;;;19.21;39.33;98298.56;5018739;28;20196;-71
2023/05/30 08:05:32;;;;;;;3.60;1.77;;;19.60;46.60;;;19.73;38.96;98341.84;5024306;28;20462;-70
2023/05/30 08:07:59;;;;;;;3.33;1.70;;;19.80;46.80;;;19.39;37.64;98300.03;5021908;28;20481;-70
2023/05/30 08:10:26;;;;;;;1.87;1.47;;;19.80;45.40;;;19.75;37.11;98345.13;5010460;28;20958;-70
2023/05/30 08:12:54;;;;;;;2.70;1.60;;;19.90;45.30;;;19.98;37.46;98343.03;4996034;28;20450;-69
2023/05/30 08:15:21;;;;;;;1.90;1.47;;;20.00;45.30;;;19.84;36.55;98345.44;5016244;28;20527;-70
2023/05/30 08:17:50;;;;;;;1.73;1.50;;;20.10;44.50;;;19.04;36.50;98292.47;5012072;28;20471;-69
2023/05/30 08:20:17;;;;;;;1.50;1.20;;;19.80;43.80;;;19.01;36.84;98303.91;5014884;28;20456;-69
2023/05/30 08:22:45;;;;;;;2.30;1.77;;;19.50;43.90;;;19.24;37.71;98355.56;5013513;28;20462;-70
2023/05/30 08:25:13;;;;;;;3.77;1.47;;;19.50;44.60;;;19.22;37.47;98362.38;5018736;28;20458;-70
2023/05/30 08:27:42;;;;;;;2.40;1.70;;;19.40;44.30;;;19.44;36.68;98345.78;4992193;28;20455;-69
2023/05/30 08:30:11;;;;;;;2.47;1.90;;;19.50;44.00;;;19.57;36.78;98354.63;5023102;28;20550;-69
2023/05/30 08:32:40;;;;;;;4.23;1.77;;;19.60;44.10;;;19.75;37.19;98350.63;4999872;28;20461;-70
2023/05/30 08:35:09;;;;;;;2.57;1.77;;;19.80;44.40;;;19.90;36.55;98355.31;5020481;28;20569;-69
2023/05/30 08:37:36;;;;;;;5.00;1.67;;;19.90;44.20;;;20.16;36.07;98352.69;5016965;28;20570;-70
2023/05/30 08:40:03;;;;;;;1.83;1.40;;;20.20;44.20;;;20.17;35.88;98357.09;5000817;28;20477;-70
2023/05/30 08:42:30;;;;;;;4.00;1.90;;;20.30;43.80;;;20.17;34.77;98348.84;5016975;28;20459;-69
2023/05/30 08:44:58;;;;;;;2.03;1.63;;;20.30;43.20;;;20.24;35.76;98346.66;5010197;28;20466;-69
2023/05/30 08:47:25;;;;;;;4.00;1.40;;;20.40;43.70;;;20.25;36.85;98351.09;5008851;28;20446;-70
2023/05/30 08:49:53;;;;;;;2.50;2.00;;;20.40;44.50;;;20.15;37.59;98345.56;5002357;28;20464;-70
2023/05/30 08:52:29;;;;;;;3.23;1.63;;;20.40;45.20;;;20.37;37.82;98354.38;5006514;28;20496;-69
2023/05/30 08:55:05;;;;;;;3.00;1.70;;;20.40;45.40;;;20.37;37.85;98357.13;5019798;28;20518;-70
2023/05/30 08:57:40;;;;;;;2.03;1.83;;;20.40;45.20;;;20.27;38.32;98353.53;5012929;28;20485;-69
2023/05/30 09:00:11;;;;;;;2.43;1.60;;;20.40;45.60;;;20.38;37.45;98360.69;4999244;28;20512;-69
2023/05/30 09:02:39;;;;;;;2.70;1.97;;;20.40;45.10;;;20.55;37.07;98352.22;5019603;28;20457;-69
2023/05/30 09:05:09;;;;;;;3.20;1.97;;;20.50;45.00;;;20.60;37.05;98356.88;5014327;28;20472;-69
2023/05/30 09:07:41;;;;;;;1.93;1.50;;;20.70;45.30;;;20.49;36.72;98345.06;5015055;28;20581;-70
2023/05/30 09:10:09;;;;;;;2.23;2.03;;;20.60;44.70;;;20.56;36.50;98353.03;5023555;28;20474;-70
2023/05/30 09:12:37;;;;;;;2.00;1.70;;;20.60;44.50;;;20.55;36.85;98349.47;5017764;28;20542;-69
2023/05/30 09:15:07;;;;;;;4.40;1.43;;;20.60;44.50;;;20.34;35.68;98346.69;5007254;28;21132;-71
2023/05/30 09:17:35;;;;;;;2.37;1.60;;;20.60;43.90;;;20.53;35.93;98348.91;5014619;28;20483;-70
2023/05/30 09:20:02;;;;;;;2.93;1.80;;;20.60;44.00;;;20.57;35.94;98351.94;4998795;28;20454;-70
2023/05/30 09:22:30;;;;;;;2.83;1.30;;;20.60;44.00;;;20.71;35.31;98350.31;4994339;28;20592;-69
2023/05/30 09:25:05;;;;;;;2.33;1.80;;;20.80;43.80;;;20.73;35.77;98352.78;4995547;28;20459;-69
2023/05/30 09:27:38;;;;;;;3.30;2.10;;;20.80;43.80;;;20.85;35.78;98352.53;5000459;28;21418;-70
2023/05/30 09:30:10;;;;;;;2.07;1.60;;;20.90;44.20;;;20.78;35.82;98350.88;5005119;28;20602;-68
2023/05/30 09:32:38;;;;;;;3.13;1.93;;;20.90;43.90;;;20.67;35.88;98344.53;5014620;28;20469;-69
2023/05/30 09:35:09;;;;;;;3.03;2.03;;;20.80;44.00;;;20.67;36.30;98341.78;5020040;28;20461;-71
2023/05/30 09:37:38;;;;;;;3.50;1.80;;;20.80;44.30;;;20.83;35.77;98352.00;4999172;28;20574;-68
2023/05/30 09:40:10;;;;;;;4.27;1.97;;;20.90;44.10;;;20.74;35.70;98337.97;5024332;28;20459;-70
2023/05/30 09:42:43;;;;;;;2.30;1.50;;;20.90;43.90;;;20.97;35.72;98344.84;5018824;28;20899;-70
2023/05/30 09:45:12;;;;;;;2.30;2.00;;;21.00;44.00;;;20.98;35.65;98342.91;4994474;28;20570;-68
2023/05/30 09:47:42;;;;;;;3.47;1.80;;;21.10;44.00;;;20.93;35.86;98330.84;5009934;28;20467;-70
2023/05/30 09:50:12;;;;;;;2.10;1.60;;;21.10;44.00;;;21.07;35.91;98336.56;5000582;28;20459;-69
2023/05/30 09:52:40;;;;;;;3.27;2.00;;;21.20;44.20;;;21.41;35.03;98346.13;5003275;28;20540;-70
2023/05/30 09:55:13;;;;;;;2.00;1.50;;;21.40;44.00;;;21.48;34.38;98346.66;5000326;28;20448;-70
2023/05/30 09:57:46;;;;;;;3.30;1.90;;;21.60;43.70;;;21.65;34.68;98345.50;5011303;28;20698;-71
2023/05/30 10:00:16;;;;;;;3.17;1.80;;;21.70;44.00;;;21.66;34.37;98341.69;5013118;28;21444;-70
2023/05/30 10:02:46;;;;;;;2.00;1.63;;;21.80;43.60;;;22.13;34.97;98338.72;5016836;28;20451;-69
2023/05/30 10:05:20;;;;;;;1.80;1.70;;;22.00;44.10;;;22.10;32.91;98345.59;5012765;28;20542;-70
2023/05/30 10:07:50;;;;;;;2.80;2.17;;;22.20;42.60;;;22.29;32.75;98343.03;5015196;28;21367;-71
2023/05/30 10:10:20;;;;;;;3.70;1.80;;;22.50;43.00;;;22.62;32.24;98343.38;4999376;28;20456;-71
2023/05/30 10:12:50;;;;;;;3.17;1.97;;;22.60;42.60;;;22.41;31.91;98337.16;5016803;28;20524;-70
2023/05/30 10:15:18;;;;;;;2.70;1.70;;;22.60;41.80;;;22.57;31.67;98342.59;5022370;28;20459;-70
2023/05/30 10:17:50;;;;;;;2.20;2.00;;;22.70;41.70;;;22.66;31.88;98340.03;4997272;28;20478;-70
2023/05/30 10:20:18;;;;;;;3.50;1.93;;;22.90;42.20;;;22.83;31.42;98351.47;4998045;28;20455;-70
2023/05/30 10:22:48;;;;;;;4.70;2.20;;;22.90;41.70;;;22.73;31.18;98304.75;5021646;28;20465;-70
2023/05/30 10:25:18;;;;;;;2.40;1.87;;;23.00;41.70;;;23.03;32.01;98327.63;4995627;28;21135;-70
2023/05/30 10:27:50;;;;;;;3.13;1.77;;;23.00;42.30;;;23.39;32.77;98341.03;5016019;28;20807;-71